Terminal Aerodrome Forecast
Issued by NWS

Home | Current Version | Previous Version | Text Only | Print | Product List | Glossary On
Versions: 1 2 3 4 5 6 7 8 9 10 11 12 13 14 15 16
126
FTUS46 KSEW 080610 AAA
TAFOLM
TAF AMD
KOLM 080610Z 0806/0906 03010KT P6SM FEW130 OVC200
     FM081800 04015G23KT P6SM FEW050 BKN130 OVC200
     FM090000 05013KT P6SM -SN SCT020 OVC050
     FM090200 07006KT 2SM -SN SCT003 OVC020
      TEMPO 0902/0906 1/2SM SN VV003=

USA.gov is the U.S. government's official web portal to all federal, state and local government web resources and services.